sensor_id;sensor_type;location;lat;lon;timestamp;temperature;humidity
78876;DHT22;68253;52.506;5.486;2023-06-22T00:00:53;19.40;69.60
78876;DHT22;68253;52.506;5.486;2023-06-22T00:03:21;19.30;69.70
78876;DHT22;68253;52.506;5.486;2023-06-22T00:05:48;19.30;69.90
78876;DHT22;68253;52.506;5.486;2023-06-22T00:08:14;19.30;69.90
78876;DHT22;68253;52.506;5.486;2023-06-22T00:10:41;19.30;69.90
78876;DHT22;68253;52.506;5.486;2023-06-22T00:13:08;19.30;69.90
78876;DHT22;68253;52.506;5.486;2023-06-22T00:15:35;19.30;70.00
78876;DHT22;68253;52.506;5.486;2023-06-22T00:18:02;19.30;70.10
78876;DHT22;68253;52.506;5.486;2023-06-22T00:20:28;19.30;70.20
78876;DHT22;68253;52.506;5.486;2023-06-22T00:22:56;19.30;70.20
78876;DHT22;68253;52.506;5.486;2023-06-22T00:25:23;19.30;70.20
78876;DHT22;68253;52.506;5.486;2023-06-22T00:27:50;19.30;70.30
78876;DHT22;68253;52.506;5.486;2023-06-22T00:30:17;19.20;70.50
78876;DHT22;68253;52.506;5.486;2023-06-22T00:32:44;19.20;70.60
78876;DHT22;68253;52.506;5.486;2023-06-22T00:35:11;19.20;70.60
78876;DHT22;68253;52.506;5.486;2023-06-22T00:37:38;19.20;70.60
78876;DHT22;68253;52.506;5.486;2023-06-22T00:40:10;19.20;70.60
78876;DHT22;68253;52.506;5.486;2023-06-22T00:42:38;19.20;70.60
78876;DHT22;68253;52.506;5.486;2023-06-22T00:45:05;19.20;70.70
78876;DHT22;68253;52.506;5.486;2023-06-22T00:47:32;19.20;70.70
78876;DHT22;68253;52.506;5.486;2023-06-22T00:49:59;19.20;70.70
78876;DHT22;68253;52.506;5.486;2023-06-22T00:52:26;19.20;70.80
78876;DHT22;68253;52.506;5.486;2023-06-22T00:54:56;19.10;70.70
78876;DHT22;68253;52.506;5.486;2023-06-22T00:57:24;19.10;70.70
78876;DHT22;68253;52.506;5.486;2023-06-22T00:59:55;19.10;70.70
78876;DHT22;68253;52.506;5.486;2023-06-22T01:02:21;19.10;70.70
78876;DHT22;68253;52.506;5.486;2023-06-22T01:04:47;19.10;70.70
78876;DHT22;68253;52.506;5.486;2023-06-22T01:07:17;19.00;70.70
78876;DHT22;68253;52.506;5.486;2023-06-22T01:12:23;18.90;70.80
78876;DHT22;68253;52.506;5.486;2023-06-22T01:15:06;18.90;70.90
78876;DHT22;68253;52.506;5.486;2023-06-22T01:17:35;18.90;71.00
78876;DHT22;68253;52.506;5.486;2023-06-22T01:20:02;18.90;71.10
78876;DHT22;68253;52.506;5.486;2023-06-22T01:22:40;18.80;71.00
78876;DHT22;68253;52.506;5.486;2023-06-22T01:25:16;18.80;71.00
78876;DHT22;68253;52.506;5.486;2023-06-22T01:30:42;18.70;71.00
78876;DHT22;68253;52.506;5.486;2023-06-22T01:33:13;18.70;71.10
78876;DHT22;68253;52.506;5.486;2023-06-22T01:35:39;18.70;71.10
78876;DHT22;68253;52.506;5.486;2023-06-22T01:38:06;18.60;71.10
78876;DHT22;68253;52.506;5.486;2023-06-22T01:40:34;18.60;71.10
78876;DHT22;68253;52.506;5.486;2023-06-22T01:43:02;18.60;71.10
78876;DHT22;68253;52.506;5.486;2023-06-22T01:45:29;18.60;71.20
78876;DHT22;68253;52.506;5.486;2023-06-22T01:47:56;18.50;71.10
78876;DHT22;68253;52.506;5.486;2023-06-22T01:50:24;18.50;71.10
78876;DHT22;68253;52.506;5.486;2023-06-22T01:52:50;18.50;71.10
78876;DHT22;68253;52.506;5.486;2023-06-22T01:55:17;18.50;71.10
78876;DHT22;68253;52.506;5.486;2023-06-22T01:57:43;18.50;71.20
78876;DHT22;68253;52.506;5.486;2023-06-22T02:00:18;18.40;71.20
78876;DHT22;68253;52.506;5.486;2023-06-22T02:05:20;18.40;71.30
78876;DHT22;68253;52.506;5.486;2023-06-22T02:10:34;18.30;71.40
78876;DHT22;68253;52.506;5.486;2023-06-22T02:13:06;18.30;71.40
78876;DHT22;68253;52.506;5.486;2023-06-22T02:15:33;18.30;71.40
78876;DHT22;68253;52.506;5.486;2023-06-22T02:18:00;18.30;71.40
78876;DHT22;68253;52.506;5.486;2023-06-22T02:20:26;18.20;71.40
78876;DHT22;68253;52.506;5.486;2023-06-22T02:22:52;18.20;71.40
78876;DHT22;68253;52.506;5.486;2023-06-22T02:25:18;18.20;71.30
78876;DHT22;68253;52.506;5.486;2023-06-22T02:27:45;18.20;71.30
78876;DHT22;68253;52.506;5.486;2023-06-22T02:30:12;18.20;71.30
78876;DHT22;68253;52.506;5.486;2023-06-22T02:32:39;18.10;71.20
78876;DHT22;68253;52.506;5.486;2023-06-22T02:35:09;18.10;71.20
78876;DHT22;68253;52.506;5.486;2023-06-22T02:37:36;18.00;71.30
78876;DHT22;68253;52.506;5.486;2023-06-22T02:40:08;18.00;71.30
78876;DHT22;68253;52.506;5.486;2023-06-22T02:42:39;18.00;71.30
78876;DHT22;68253;52.506;5.486;2023-06-22T02:45:05;18.00;71.40
78876;DHT22;68253;52.506;5.486;2023-06-22T02:47:32;18.00;71.50
78876;DHT22;68253;52.506;5.486;2023-06-22T02:49:58;18.00;71.50
78876;DHT22;68253;52.506;5.486;2023-06-22T02:52:25;18.00;71.50
78876;DHT22;68253;52.506;5.486;2023-06-22T02:54:51;17.90;71.60
78876;DHT22;68253;52.506;5.486;2023-06-22T02:57:18;17.90;71.70
78876;DHT22;68253;52.506;5.486;2023-06-22T02:59:44;17.90;71.70
78876;DHT22;68253;52.506;5.486;2023-06-22T03:02:12;17.90;71.80
78876;DHT22;68253;52.506;5.486;2023-06-22T03:04:38;17.90;71.70
78876;DHT22;68253;52.506;5.486;2023-06-22T03:07:04;17.80;71.70
78876;DHT22;68253;52.506;5.486;2023-06-22T03:09:32;17.80;71.70
78876;DHT22;68253;52.506;5.486;2023-06-22T03:11:58;17.80;71.70
78876;DHT22;68253;52.506;5.486;2023-06-22T03:14:30;17.80;71.70
78876;DHT22;68253;52.506;5.486;2023-06-22T03:16:56;17.80;71.70
78876;DHT22;68253;52.506;5.486;2023-06-22T03:19:27;17.80;71.70
78876;DHT22;68253;52.506;5.486;2023-06-22T03:21:55;17.80;71.80
78876;DHT22;68253;52.506;5.486;2023-06-22T03:24:21;17.80;71.70
78876;DHT22;68253;52.506;5.486;2023-06-22T03:26:47;17.80;71.80
78876;DHT22;68253;52.506;5.486;2023-06-22T03:29:14;17.80;71.80
78876;DHT22;68253;52.506;5.486;2023-06-22T03:31:42;17.80;71.70
78876;DHT22;68253;52.506;5.486;2023-06-22T03:34:09;17.80;71.80
78876;DHT22;68253;52.506;5.486;2023-06-22T03:36:35;17.80;71.80
78876;DHT22;68253;52.506;5.486;2023-06-22T03:39:02;17.70;71.70
78876;DHT22;68253;52.506;5.486;2023-06-22T03:41:28;17.70;71.70
78876;DHT22;68253;52.506;5.486;2023-06-22T03:43:54;17.70;71.80
78876;DHT22;68253;52.506;5.486;2023-06-22T03:46:21;17.70;71.90
78876;DHT22;68253;52.506;5.486;2023-06-22T03:48:47;17.80;72.00
78876;DHT22;68253;52.506;5.486;2023-06-22T03:51:13;17.80;72.00
78876;DHT22;68253;52.506;5.486;2023-06-22T03:53:39;17.80;72.00
78876;DHT22;68253;52.506;5.486;2023-06-22T03:56:05;17.80;72.10
78876;DHT22;68253;52.506;5.486;2023-06-22T03:58:31;17.80;72.10
78876;DHT22;68253;52.506;5.486;2023-06-22T04:00:58;17.80;72.10
78876;DHT22;68253;52.506;5.486;2023-06-22T04:03:26;17.80;72.10
78876;DHT22;68253;52.506;5.486;2023-06-22T04:05:52;17.80;72.10
78876;DHT22;68253;52.506;5.486;2023-06-22T04:08:18;17.80;72.10
78876;DHT22;68253;52.506;5.486;2023-06-22T04:10:44;17.80;72.20
78876;DHT22;68253;52.506;5.486;2023-06-22T04:13:10;17.80;72.20
78876;DHT22;68253;52.506;5.486;2023-06-22T04:15:37;17.80;72.20
78876;DHT22;68253;52.506;5.486;2023-06-22T04:18:03;17.80;72.20
78876;DHT22;68253;52.506;5.486;2023-06-22T04:20:30;17.80;72.30
78876;DHT22;68253;52.506;5.486;2023-06-22T04:22:57;17.80;72.40
78876;DHT22;68253;52.506;5.486;2023-06-22T04:25:23;17.90;72.40
78876;DHT22;68253;52.506;5.486;2023-06-22T04:27:49;18.00;72.40
78876;DHT22;68253;52.506;5.486;2023-06-22T04:30:16;18.00;72.40
78876;DHT22;68253;52.506;5.486;2023-06-22T04:32:43;18.00;72.30
78876;DHT22;68253;52.506;5.486;2023-06-22T04:35:10;18.00;72.40
78876;DHT22;68253;52.506;5.486;2023-06-22T04:37:37;18.10;72.50
78876;DHT22;68253;52.506;5.486;2023-06-22T04:40:03;18.10;72.50
78876;DHT22;68253;52.506;5.486;2023-06-22T04:42:34;18.20;72.60
78876;DHT22;68253;52.506;5.486;2023-06-22T04:45:00;18.20;72.60
78876;DHT22;68253;52.506;5.486;2023-06-22T04:47:26;18.20;72.70
78876;DHT22;68253;52.506;5.486;2023-06-22T04:49:53;18.30;72.90
78876;DHT22;68253;52.506;5.486;2023-06-22T04:52:19;18.30;73.00
78876;DHT22;68253;52.506;5.486;2023-06-22T04:54:46;18.40;73.00
78876;DHT22;68253;52.506;5.486;2023-06-22T04:57:16;18.50;73.10
78876;DHT22;68253;52.506;5.486;2023-06-22T04:59:42;18.50;73.20
78876;DHT22;68253;52.506;5.486;2023-06-22T05:02:09;18.60;73.30
78876;DHT22;68253;52.506;5.486;2023-06-22T05:04:35;18.60;73.30
78876;DHT22;68253;52.506;5.486;2023-06-22T05:07:04;18.70;73.40
78876;DHT22;68253;52.506;5.486;2023-06-22T05:09:31;18.80;73.40
78876;DHT22;68253;52.506;5.486;2023-06-22T05:11:59;18.80;73.30
78876;DHT22;68253;52.506;5.486;2023-06-22T05:14:29;18.90;73.30
78876;DHT22;68253;52.506;5.486;2023-06-22T05:16:56;19.00;73.40
78876;DHT22;68253;52.506;5.486;2023-06-22T05:19:25;19.10;73.30
78876;DHT22;68253;52.506;5.486;2023-06-22T05:21:57;19.20;73.20
78876;DHT22;68253;52.506;5.486;2023-06-22T05:24:23;19.30;73.20
78876;DHT22;68253;52.506;5.486;2023-06-22T05:26:49;19.40;73.10
78876;DHT22;68253;52.506;5.486;2023-06-22T05:29:15;19.50;72.90
78876;DHT22;68253;52.506;5.486;2023-06-22T05:31:41;19.60;72.70
78876;DHT22;68253;52.506;5.486;2023-06-22T05:34:08;19.70;72.60
78876;DHT22;68253;52.506;5.486;2023-06-22T05:36:34;19.70;72.50
78876;DHT22;68253;52.506;5.486;2023-06-22T05:39:11;19.80;72.50
78876;DHT22;68253;52.506;5.486;2023-06-22T05:41:39;19.90;72.40
78876;DHT22;68253;52.506;5.486;2023-06-22T05:44:08;20.00;72.20
78876;DHT22;68253;52.506;5.486;2023-06-22T05:46:34;20.00;72.30
78876;DHT22;68253;52.506;5.486;2023-06-22T05:49:01;20.00;72.20
78876;DHT22;68253;52.506;5.486;2023-06-22T05:51:30;20.00;72.20
78876;DHT22;68253;52.506;5.486;2023-06-22T05:53:56;20.20;72.10
78876;DHT22;68253;52.506;5.486;2023-06-22T05:56:22;20.40;71.90
78876;DHT22;68253;52.506;5.486;2023-06-22T05:58:48;20.50;71.60
78876;DHT22;68253;52.506;5.486;2023-06-22T06:01:14;20.60;71.50
78876;DHT22;68253;52.506;5.486;2023-06-22T06:03:41;20.70;71.40
78876;DHT22;68253;52.506;5.486;2023-06-22T06:06:08;20.80;71.30
78876;DHT22;68253;52.506;5.486;2023-06-22T06:08:34;21.00;71.10
78876;DHT22;68253;52.506;5.486;2023-06-22T06:11:00;21.10;70.70
78876;DHT22;68253;52.506;5.486;2023-06-22T06:13:26;21.40;70.50
78876;DHT22;68253;52.506;5.486;2023-06-22T06:15:52;21.50;70.00
78876;DHT22;68253;52.506;5.486;2023-06-22T06:18:21;21.70;69.60
78876;DHT22;68253;52.506;5.486;2023-06-22T06:20:47;21.90;69.20
78876;DHT22;68253;52.506;5.486;2023-06-22T06:23:13;22.00;68.70
78876;DHT22;68253;52.506;5.486;2023-06-22T06:25:39;22.10;68.40
78876;DHT22;68253;52.506;5.486;2023-06-22T06:28:05;22.20;68.20
78876;DHT22;68253;52.506;5.486;2023-06-22T06:30:31;22.10;68.00
78876;DHT22;68253;52.506;5.486;2023-06-22T06:32:58;22.10;67.90
78876;DHT22;68253;52.506;5.486;2023-06-22T06:35:24;22.10;67.90
78876;DHT22;68253;52.506;5.486;2023-06-22T06:37:50;22.10;67.40
78876;DHT22;68253;52.506;5.486;2023-06-22T06:40:17;22.10;67.60
78876;DHT22;68253;52.506;5.486;2023-06-22T06:42:46;22.10;67.50
78876;DHT22;68253;52.506;5.486;2023-06-22T06:45:17;22.10;67.50
78876;DHT22;68253;52.506;5.486;2023-06-22T06:47:44;22.20;67.40
78876;DHT22;68253;52.506;5.486;2023-06-22T06:50:10;22.20;67.30
78876;DHT22;68253;52.506;5.486;2023-06-22T06:52:36;22.30;67.20
78876;DHT22;68253;52.506;5.486;2023-06-22T06:55:03;22.50;67.10
78876;DHT22;68253;52.506;5.486;2023-06-22T06:57:41;22.50;66.90
78876;DHT22;68253;52.506;5.486;2023-06-22T07:00:09;22.80;66.60
78876;DHT22;68253;52.506;5.486;2023-06-22T07:02:42;23.00;66.30
78876;DHT22;68253;52.506;5.486;2023-06-22T07:05:10;23.20;66.20
78876;DHT22;68253;52.506;5.486;2023-06-22T07:07:37;23.50;65.80
78876;DHT22;68253;52.506;5.486;2023-06-22T07:10:05;23.70;65.50
78876;DHT22;68253;52.506;5.486;2023-06-22T07:12:31;24.00;65.40
78876;DHT22;68253;52.506;5.486;2023-06-22T07:15:03;24.20;64.80
78876;DHT22;68253;52.506;5.486;2023-06-22T07:17:29;24.40;64.20
78876;DHT22;68253;52.506;5.486;2023-06-22T07:19:55;24.40;63.70
78876;DHT22;68253;52.506;5.486;2023-06-22T07:22:21;24.50;63.70
78876;DHT22;68253;52.506;5.486;2023-06-22T07:24:47;24.60;63.50
78876;DHT22;68253;52.506;5.486;2023-06-22T07:27:15;24.60;63.30
78876;DHT22;68253;52.506;5.486;2023-06-22T07:29:45;24.70;63.30
78876;DHT22;68253;52.506;5.486;2023-06-22T07:32:11;24.90;63.00
78876;DHT22;68253;52.506;5.486;2023-06-22T07:34:37;25.00;62.60
78876;DHT22;68253;52.506;5.486;2023-06-22T07:37:04;25.10;62.30
78876;DHT22;68253;52.506;5.486;2023-06-22T07:39:30;25.20;62.20
78876;DHT22;68253;52.506;5.486;2023-06-22T07:41:56;25.30;62.20
78876;DHT22;68253;52.506;5.486;2023-06-22T07:44:23;25.40;61.70
78876;DHT22;68253;52.506;5.486;2023-06-22T07:46:49;25.50;61.50
78876;DHT22;68253;52.506;5.486;2023-06-22T07:49:17;25.60;61.60
78876;DHT22;68253;52.506;5.486;2023-06-22T07:51:43;25.70;61.80
78876;DHT22;68253;52.506;5.486;2023-06-22T07:54:10;25.80;62.00
78876;DHT22;68253;52.506;5.486;2023-06-22T07:56:37;26.00;61.70
78876;DHT22;68253;52.506;5.486;2023-06-22T07:59:03;26.10;61.30
78876;DHT22;68253;52.506;5.486;2023-06-22T08:01:29;26.20;60.90
78876;DHT22;68253;52.506;5.486;2023-06-22T08:03:56;26.20;61.20
78876;DHT22;68253;52.506;5.486;2023-06-22T08:06:22;26.40;61.00
78876;DHT22;68253;52.506;5.486;2023-06-22T08:08:48;26.40;60.80
78876;DHT22;68253;52.506;5.486;2023-06-22T08:11:14;26.60;60.80
78876;DHT22;68253;52.506;5.486;2023-06-22T08:13:41;26.80;60.70
78876;DHT22;68253;52.506;5.486;2023-06-22T08:16:07;26.90;60.30
78876;DHT22;68253;52.506;5.486;2023-06-22T08:18:33;27.00;59.90
78876;DHT22;68253;52.506;5.486;2023-06-22T08:20:59;27.10;59.80
78876;DHT22;68253;52.506;5.486;2023-06-22T08:23:26;27.20;59.50
78876;DHT22;68253;52.506;5.486;2023-06-22T08:25:52;27.40;59.30
78876;DHT22;68253;52.506;5.486;2023-06-22T08:28:18;27.50;59.00
78876;DHT22;68253;52.506;5.486;2023-06-22T08:30:44;27.50;58.90
78876;DHT22;68253;52.506;5.486;2023-06-22T08:33:11;27.50;58.80
78876;DHT22;68253;52.506;5.486;2023-06-22T08:35:37;27.50;58.80
78876;DHT22;68253;52.506;5.486;2023-06-22T08:38:03;27.70;58.70
78876;DHT22;68253;52.506;5.486;2023-06-22T08:40:29;27.90;59.00
78876;DHT22;68253;52.506;5.486;2023-06-22T08:42:55;28.10;58.50
78876;DHT22;68253;52.506;5.486;2023-06-22T08:45:21;28.10;58.00
78876;DHT22;68253;52.506;5.486;2023-06-22T08:47:47;28.30;58.00
78876;DHT22;68253;52.506;5.486;2023-06-22T08:50:13;28.50;57.80
78876;DHT22;68253;52.506;5.486;2023-06-22T08:52:40;28.50;57.40
78876;DHT22;68253;52.506;5.486;2023-06-22T08:55:10;28.60;57.30
78876;DHT22;68253;52.506;5.486;2023-06-22T08:57:37;28.70;57.00
78876;DHT22;68253;52.506;5.486;2023-06-22T09:00:08;28.70;56.40
78876;DHT22;68253;52.506;5.486;2023-06-22T09:02:46;28.60;56.90
78876;DHT22;68253;52.506;5.486;2023-06-22T09:05:13;28.70;56.60
78876;DHT22;68253;52.506;5.486;2023-06-22T09:07:40;28.90;56.80
78876;DHT22;68253;52.506;5.486;2023-06-22T09:10:06;29.00;56.50
78876;DHT22;68253;52.506;5.486;2023-06-22T09:12:33;29.20;56.20
78876;DHT22;68253;52.506;5.486;2023-06-22T09:15:00;29.20;56.10
78876;DHT22;68253;52.506;5.486;2023-06-22T09:17:26;29.30;55.70
78876;DHT22;68253;52.506;5.486;2023-06-22T09:19:53;29.30;55.70
78876;DHT22;68253;52.506;5.486;2023-06-22T09:22:19;29.30;55.90
78876;DHT22;68253;52.506;5.486;2023-06-22T09:24:45;29.50;56.00
78876;DHT22;68253;52.506;5.486;2023-06-22T09:27:11;29.70;55.70
78876;DHT22;68253;52.506;5.486;2023-06-22T09:29:37;29.70;55.20
78876;DHT22;68253;52.506;5.486;2023-06-22T09:32:04;29.90;55.50
78876;DHT22;68253;52.506;5.486;2023-06-22T09:34:30;29.90;54.60
78876;DHT22;68253;52.506;5.486;2023-06-22T09:36:57;30.00;54.30
78876;DHT22;68253;52.506;5.486;2023-06-22T09:39:26;29.90;54.40
78876;DHT22;68253;52.506;5.486;2023-06-22T09:41:52;29.90;54.80
78876;DHT22;68253;52.506;5.486;2023-06-22T09:44:18;30.00;54.30
78876;DHT22;68253;52.506;5.486;2023-06-22T09:46:45;29.90;54.40
78876;DHT22;68253;52.506;5.486;2023-06-22T09:49:11;29.90;54.20
78876;DHT22;68253;52.506;5.486;2023-06-22T09:51:37;29.70;54.50
78876;DHT22;68253;52.506;5.486;2023-06-22T09:54:03;29.70;54.10
78876;DHT22;68253;52.506;5.486;2023-06-22T09:56:29;29.90;54.00
78876;DHT22;68253;52.506;5.486;2023-06-22T09:58:56;30.00;54.10
78876;DHT22;68253;52.506;5.486;2023-06-22T10:01:22;30.10;53.90
78876;DHT22;68253;52.506;5.486;2023-06-22T10:03:49;30.10;54.00
78876;DHT22;68253;52.506;5.486;2023-06-22T10:06:15;30.10;53.80
78876;DHT22;68253;52.506;5.486;2023-06-22T10:08:41;30.20;53.60
78876;DHT22;68253;52.506;5.486;2023-06-22T10:11:08;30.30;53.30
78876;DHT22;68253;52.506;5.486;2023-06-22T10:13:34;30.30;52.70
78876;DHT22;68253;52.506;5.486;2023-06-22T10:16:00;30.20;52.90
78876;DHT22;68253;52.506;5.486;2023-06-22T10:18:26;30.10;53.40
78876;DHT22;68253;52.506;5.486;2023-06-22T10:20:52;30.00;53.50
78876;DHT22;68253;52.506;5.486;2023-06-22T10:23:22;29.90;53.10
78876;DHT22;68253;52.506;5.486;2023-06-22T10:25:48;29.70;53.70
78876;DHT22;68253;52.506;5.486;2023-06-22T10:28:14;29.40;54.30
78876;DHT22;68253;52.506;5.486;2023-06-22T10:30:41;29.20;53.70
78876;DHT22;68253;52.506;5.486;2023-06-22T10:33:11;28.90;53.80
78876;DHT22;68253;52.506;5.486;2023-06-22T10:35:38;28.70;53.70
78876;DHT22;68253;52.506;5.486;2023-06-22T10:38:05;28.50;54.20
78876;DHT22;68253;52.506;5.486;2023-06-22T10:40:32;28.30;54.70
78876;DHT22;68253;52.506;5.486;2023-06-22T10:42:58;28.20;54.60
78876;DHT22;68253;52.506;5.486;2023-06-22T10:45:24;28.10;54.90
78876;DHT22;68253;52.506;5.486;2023-06-22T10:47:50;28.00;55.00
78876;DHT22;68253;52.506;5.486;2023-06-22T10:50:17;27.90;54.50
78876;DHT22;68253;52.506;5.486;2023-06-22T10:52:43;27.60;54.70
78876;DHT22;68253;52.506;5.486;2023-06-22T10:55:10;27.40;55.20
78876;DHT22;68253;52.506;5.486;2023-06-22T10:57:36;27.20;55.40
78876;DHT22;68253;52.506;5.486;2023-06-22T11:00:03;27.10;55.50
78876;DHT22;68253;52.506;5.486;2023-06-22T11:02:31;27.00;55.80
78876;DHT22;68253;52.506;5.486;2023-06-22T11:04:58;27.00;56.20
78876;DHT22;68253;52.506;5.486;2023-06-22T11:07:26;27.00;56.20
78876;DHT22;68253;52.506;5.486;2023-06-22T11:09:55;26.90;56.40
78876;DHT22;68253;52.506;5.486;2023-06-22T11:12:21;26.90;56.10
78876;DHT22;68253;52.506;5.486;2023-06-22T11:14:47;26.70;56.30
78876;DHT22;68253;52.506;5.486;2023-06-22T11:17:13;26.60;56.50
78876;DHT22;68253;52.506;5.486;2023-06-22T11:19:39;26.50;56.80
78876;DHT22;68253;52.506;5.486;2023-06-22T11:22:06;26.50;57.00
78876;DHT22;68253;52.506;5.486;2023-06-22T11:24:32;26.40;56.80
78876;DHT22;68253;52.506;5.486;2023-06-22T11:26:58;26.30;56.70
78876;DHT22;68253;52.506;5.486;2023-06-22T11:29:24;26.10;56.90
78876;DHT22;68253;52.506;5.486;2023-06-22T11:31:50;26.00;57.10
78876;DHT22;68253;52.506;5.486;2023-06-22T11:34:16;26.00;57.40
78876;DHT22;68253;52.506;5.486;2023-06-22T11:36:43;25.80;57.50
78876;DHT22;68253;52.506;5.486;2023-06-22T11:39:10;25.80;57.80
78876;DHT22;68253;52.506;5.486;2023-06-22T11:41:36;25.80;58.00
78876;DHT22;68253;52.506;5.486;2023-06-22T11:44:03;25.80;58.20
78876;DHT22;68253;52.506;5.486;2023-06-22T11:46:30;25.70;58.10
78876;DHT22;68253;52.506;5.486;2023-06-22T11:48:57;25.70;58.00
78876;DHT22;68253;52.506;5.486;2023-06-22T11:51:24;25.60;57.90
78876;DHT22;68253;52.506;5.486;2023-06-22T11:53:50;25.60;58.00
78876;DHT22;68253;52.506;5.486;2023-06-22T11:56:16;25.60;58.20
78876;DHT22;68253;52.506;5.486;2023-06-22T11:58:42;25.60;58.70
78876;DHT22;68253;52.506;5.486;2023-06-22T12:01:08;25.50;59.10
78876;DHT22;68253;52.506;5.486;2023-06-22T12:03:34;25.40;59.80
78876;DHT22;68253;52.506;5.486;2023-06-22T12:06:00;25.30;60.30
78876;DHT22;68253;52.506;5.486;2023-06-22T12:08:27;25.10;60.50
78876;DHT22;68253;52.506;5.486;2023-06-22T12:10:53;25.00;60.90
78876;DHT22;68253;52.506;5.486;2023-06-22T12:13:20;24.90;62.00
78876;DHT22;68253;52.506;5.486;2023-06-22T12:15:46;24.80;61.80
78876;DHT22;68253;52.506;5.486;2023-06-22T12:18:12;24.80;62.50
78876;DHT22;68253;52.506;5.486;2023-06-22T12:20:40;24.80;62.90
78876;DHT22;68253;52.506;5.486;2023-06-22T12:23:07;24.80;63.00
78876;DHT22;68253;52.506;5.486;2023-06-22T12:25:33;24.80;63.30
78876;DHT22;68253;52.506;5.486;2023-06-22T12:27:59;24.80;63.30
78876;DHT22;68253;52.506;5.486;2023-06-22T12:30:25;24.70;63.00
78876;DHT22;68253;52.506;5.486;2023-06-22T12:32:51;24.70;63.50
78876;DHT22;68253;52.506;5.486;2023-06-22T12:35:17;24.70;63.90
78876;DHT22;68253;52.506;5.486;2023-06-22T12:37:44;24.70;64.00
78876;DHT22;68253;52.506;5.486;2023-06-22T12:40:10;24.70;64.00
78876;DHT22;68253;52.506;5.486;2023-06-22T12:42:37;24.70;64.50
78876;DHT22;68253;52.506;5.486;2023-06-22T12:45:03;24.70;63.90
78876;DHT22;68253;52.506;5.486;2023-06-22T12:47:29;24.70;64.00
78876;DHT22;68253;52.506;5.486;2023-06-22T12:49:55;24.70;64.60
78876;DHT22;68253;52.506;5.486;2023-06-22T12:52:22;24.70;65.20
78876;DHT22;68253;52.506;5.486;2023-06-22T12:54:48;24.70;65.30
78876;DHT22;68253;52.506;5.486;2023-06-22T12:57:14;24.80;64.80
78876;DHT22;68253;52.506;5.486;2023-06-22T12:59:40;24.80;64.70
78876;DHT22;68253;52.506;5.486;2023-06-22T13:02:07;24.70;64.70
78876;DHT22;68253;52.506;5.486;2023-06-22T13:04:33;24.70;65.00
78876;DHT22;68253;52.506;5.486;2023-06-22T13:06:59;24.70;64.60
78876;DHT22;68253;52.506;5.486;2023-06-22T13:09:25;24.60;65.20
78876;DHT22;68253;52.506;5.486;2023-06-22T13:11:51;24.60;65.40
78876;DHT22;68253;52.506;5.486;2023-06-22T13:14:18;24.60;65.60
78876;DHT22;68253;52.506;5.486;2023-06-22T13:16:44;24.70;66.20
78876;DHT22;68253;52.506;5.486;2023-06-22T13:19:10;24.70;66.20
78876;DHT22;68253;52.506;5.486;2023-06-22T13:21:37;24.60;65.50
78876;DHT22;68253;52.506;5.486;2023-06-22T13:24:03;24.60;65.70
78876;DHT22;68253;52.506;5.486;2023-06-22T13:26:32;24.60;65.70
78876;DHT22;68253;52.506;5.486;2023-06-22T13:28:58;24.60;65.50
78876;DHT22;68253;52.506;5.486;2023-06-22T13:31:24;24.50;65.20
78876;DHT22;68253;52.506;5.486;2023-06-22T13:33:50;24.50;65.30
78876;DHT22;68253;52.506;5.486;2023-06-22T13:36:18;24.40;65.40
78876;DHT22;68253;52.506;5.486;2023-06-22T13:38:45;24.40;65.70
78876;DHT22;68253;52.506;5.486;2023-06-22T13:41:11;24.40;65.30
78876;DHT22;68253;52.506;5.486;2023-06-22T13:43:37;24.40;65.00
78876;DHT22;68253;52.506;5.486;2023-06-22T13:46:04;24.40;65.50
78876;DHT22;68253;52.506;5.486;2023-06-22T13:48:30;24.30;65.60
78876;DHT22;68253;52.506;5.486;2023-06-22T13:50:56;24.30;65.70
78876;DHT22;68253;52.506;5.486;2023-06-22T13:53:24;24.20;65.70
78876;DHT22;68253;52.506;5.486;2023-06-22T13:55:51;24.20;66.60
78876;DHT22;68253;52.506;5.486;2023-06-22T13:58:17;24.20;66.50
78876;DHT22;68253;52.506;5.486;2023-06-22T14:00:45;24.20;67.00
78876;DHT22;68253;52.506;5.486;2023-06-22T14:03:12;24.20;67.60
78876;DHT22;68253;52.506;5.486;2023-06-22T14:05:42;24.20;67.30
78876;DHT22;68253;52.506;5.486;2023-06-22T14:08:08;24.20;67.90
78876;DHT22;68253;52.506;5.486;2023-06-22T14:10:35;24.10;67.90
78876;DHT22;68253;52.506;5.486;2023-06-22T14:13:01;24.00;68.00
78876;DHT22;68253;52.506;5.486;2023-06-22T14:15:27;24.00;68.10
78876;DHT22;68253;52.506;5.486;2023-06-22T14:17:53;24.00;67.80
78876;DHT22;68253;52.506;5.486;2023-06-22T14:20:19;23.90;67.20
78876;DHT22;68253;52.506;5.486;2023-06-22T14:22:45;23.90;67.40
78876;DHT22;68253;52.506;5.486;2023-06-22T14:25:12;23.80;67.80
78876;DHT22;68253;52.506;5.486;2023-06-22T14:27:38;23.80;68.30
78876;DHT22;68253;52.506;5.486;2023-06-22T14:30:04;23.80;68.60
78876;DHT22;68253;52.506;5.486;2023-06-22T14:32:31;23.70;68.40
78876;DHT22;68253;52.506;5.486;2023-06-22T14:34:57;23.60;68.20
78876;DHT22;68253;52.506;5.486;2023-06-22T14:37:23;23.60;68.30
78876;DHT22;68253;52.506;5.486;2023-06-22T14:39:49;23.60;68.60
78876;DHT22;68253;52.506;5.486;2023-06-22T14:42:15;23.50;68.70
78876;DHT22;68253;52.506;5.486;2023-06-22T14:44:41;23.50;69.50
78876;DHT22;68253;52.506;5.486;2023-06-22T14:47:08;23.50;69.60
78876;DHT22;68253;52.506;5.486;2023-06-22T14:49:34;23.50;69.90
78876;DHT22;68253;52.506;5.486;2023-06-22T14:52:01;23.50;70.20
78876;DHT22;68253;52.506;5.486;2023-06-22T14:54:28;23.50;70.10
78876;DHT22;68253;52.506;5.486;2023-06-22T14:56:54;23.40;70.30
78876;DHT22;68253;52.506;5.486;2023-06-22T14:59:20;23.40;70.20
78876;DHT22;68253;52.506;5.486;2023-06-22T15:01:46;23.30;70.30
78876;DHT22;68253;52.506;5.486;2023-06-22T15:04:12;23.30;69.90
78876;DHT22;68253;52.506;5.486;2023-06-22T15:06:38;23.20;70.20
78876;DHT22;68253;52.506;5.486;2023-06-22T15:09:04;23.20;70.50
78876;DHT22;68253;52.506;5.486;2023-06-22T15:11:30;23.20;71.10
78876;DHT22;68253;52.506;5.486;2023-06-22T15:13:58;23.20;70.70
78876;DHT22;68253;52.506;5.486;2023-06-22T15:16:26;23.20;71.00
78876;DHT22;68253;52.506;5.486;2023-06-22T15:18:52;23.10;70.50
78876;DHT22;68253;52.506;5.486;2023-06-22T15:21:19;23.10;70.50
78876;DHT22;68253;52.506;5.486;2023-06-22T15:23:45;23.00;70.90
78876;DHT22;68253;52.506;5.486;2023-06-22T15:26:11;23.00;71.10
78876;DHT22;68253;52.506;5.486;2023-06-22T15:28:39;23.00;71.20
78876;DHT22;68253;52.506;5.486;2023-06-22T15:31:05;23.00;71.30
78876;DHT22;68253;52.506;5.486;2023-06-22T15:33:32;22.90;71.60
78876;DHT22;68253;52.506;5.486;2023-06-22T15:35:58;22.90;71.30
78876;DHT22;68253;52.506;5.486;2023-06-22T15:38:29;22.90;71.50